createdAt,value
2018-07-10T00:00:44.762Z,17.40
2018-07-10T00:04:29.591Z,17.20
2018-07-10T00:07:44.308Z,17.20
2018-07-10T00:11:30.690Z,17.20
2018-07-10T00:14:01.217Z,17.20
2018-07-10T00:16:31.991Z,17.30
2018-07-10T00:21:32.672Z,17.30
2018-07-10T00:24:04.032Z,17.20
2018-07-10T00:29:05.042Z,17.20
2018-07-10T00:34:06.061Z,17.10
2018-07-10T00:36:36.916Z,17.00
2018-07-10T00:39:09.884Z,17.00
2018-07-10T00:41:41.896Z,16.90
2018-07-10T00:44:12.859Z,16.90
2018-07-10T00:46:43.442Z,16.80
2018-07-10T00:49:14.099Z,16.80
2018-07-10T00:51:44.781Z,16.80
2018-07-10T00:54:15.699Z,16.60
2018-07-10T00:56:46.234Z,16.60
2018-07-10T00:59:17.246Z,16.60
2018-07-10T01:01:48.985Z,16.50
2018-07-10T01:04:19.748Z,16.50
2018-07-10T01:06:50.362Z,16.50
2018-07-10T01:09:20.992Z,16.40
2018-07-10T01:11:51.584Z,16.30
2018-07-10T01:14:22.253Z,16.20
2018-07-10T01:16:52.727Z,16.20
2018-07-10T01:19:23.494Z,16.10
2018-07-10T01:21:55.037Z,16.10
2018-07-10T01:24:25.737Z,16.10
2018-07-10T01:26:56.333Z,16.10
2018-07-10T01:29:31.773Z,16.20
2018-07-10T01:32:02.491Z,16.20
2018-07-10T01:34:33.169Z,16.30
2018-07-10T01:37:04.683Z,16.20
2018-07-10T01:42:06.630Z,16.20
2018-07-10T01:44:37.296Z,16.00
2018-07-10T01:47:07.833Z,16.00
2018-07-10T01:49:38.540Z,16.00
2018-07-10T01:52:10.445Z,16.00
2018-07-10T01:54:40.992Z,16.00
2018-07-10T01:59:42.271Z,15.80
2018-07-10T02:04:43.468Z,15.60
2018-07-10T02:07:14.100Z,15.60
2018-07-10T02:09:45.484Z,15.50
2018-07-10T02:12:17.388Z,15.50
2018-07-10T02:17:18.342Z,15.50
2018-07-10T02:19:49.242Z,15.50
2018-07-10T02:24:50.913Z,15.60
2018-07-10T02:27:21.857Z,15.60
2018-07-10T02:32:23.646Z,15.50
2018-07-10T02:34:54.354Z,15.40
2018-07-10T02:37:25.192Z,15.40
2018-07-10T02:39:55.828Z,15.40
2018-07-10T02:42:27.531Z,15.40
2018-07-10T02:44:58.090Z,15.30
2018-07-10T02:47:32.130Z,15.30
2018-07-10T02:50:02.845Z,15.20
2018-07-10T02:52:41.130Z,15.20
2018-07-10T02:55:11.862Z,15.20
2018-07-10T02:57:42.463Z,15.20
2018-07-10T03:00:13.109Z,15.30
2018-07-10T03:02:44.815Z,15.30
2018-07-10T03:05:15.709Z,15.30
2018-07-10T03:07:46.362Z,15.20
2018-07-10T03:10:17.044Z,15.10
2018-07-10T03:12:47.708Z,15.10
2018-07-10T03:15:18.433Z,15.10
2018-07-10T03:17:49.401Z,15.00
2018-07-10T03:20:20.267Z,14.90
2018-07-10T03:22:51.754Z,14.70
2018-07-10T03:25:22.543Z,14.60
2018-07-10T03:27:53.161Z,14.50
2018-07-10T03:30:24.468Z,14.50
2018-07-10T03:32:55.150Z,14.40
2018-07-10T03:35:25.819Z,14.50
2018-07-10T03:37:56.444Z,14.50
2018-07-10T03:40:30.424Z,14.60
2018-07-10T03:43:01.083Z,14.60
2018-07-10T03:45:31.683Z,14.60
2018-07-10T03:48:02.301Z,14.50
2018-07-10T03:50:35.468Z,14.50
2018-07-10T03:53:06.500Z,14.50
2018-07-10T03:55:39.993Z,14.60
2018-07-10T03:58:11.074Z,14.70
2018-07-10T04:00:41.705Z,14.70
2018-07-10T04:03:12.457Z,14.70
2018-07-10T04:05:42.990Z,14.70
2018-07-10T04:10:45.643Z,15.00
2018-07-10T04:13:21.672Z,15.00
2018-07-10T04:15:59.245Z,14.90
2018-07-10T04:18:33.165Z,14.80
2018-07-10T04:21:37.501Z,14.70
2018-07-10T04:24:17.995Z,14.40
2018-07-10T04:29:58.749Z,14.20
2018-07-10T04:32:30.308Z,14.30
2018-07-10T04:35:02.480Z,14.30
2018-07-10T04:37:34.158Z,14.40
2018-07-10T04:40:06.458Z,14.40
2018-07-10T04:42:51.845Z,14.50
2018-07-10T04:45:23.519Z,14.70
2018-07-10T04:47:57.651Z,14.70
2018-07-10T04:50:41.424Z,14.90
2018-07-10T04:53:23.087Z,15.00
2018-07-10T04:55:54.707Z,15.20
2018-07-10T04:58:25.477Z,15.40
2018-07-10T05:01:03.372Z,15.50
2018-07-10T05:03:35.399Z,15.60
2018-07-10T05:06:08.763Z,15.80
2018-07-10T05:08:39.390Z,16.00
2018-07-10T05:11:10.197Z,16.20
2018-07-10T05:13:41.059Z,16.40
2018-07-10T05:16:12.461Z,16.50
2018-07-10T05:18:43.977Z,16.60
2018-07-10T05:21:17.265Z,16.70
2018-07-10T05:23:49.165Z,16.90
2018-07-10T05:26:19.834Z,17.00
2018-07-10T05:28:54.596Z,17.20
2018-07-10T05:31:26.051Z,17.20
2018-07-10T05:33:57.166Z,17.40
2018-07-10T05:39:07.812Z,17.80
2018-07-10T05:41:45.108Z,18.00
2018-07-10T05:44:23.954Z,18.10
2018-07-10T05:47:01.371Z,18.40
2018-07-10T05:49:39.359Z,18.50
2018-07-10T05:52:13.434Z,18.90
2018-07-10T05:57:17.478Z,19.50
2018-07-10T05:59:48.265Z,19.60
2018-07-10T06:04:50.051Z,19.70
2018-07-10T06:07:21.478Z,19.70
2018-07-10T06:09:53.034Z,19.70
2018-07-10T06:14:59.652Z,19.90
2018-07-10T06:17:32.177Z,20.00
2018-07-10T06:20:03.916Z,20.20
2018-07-10T06:25:08.596Z,20.50
2018-07-10T06:30:19.190Z,21.00
2018-07-10T06:33:05.054Z,21.40
2018-07-10T06:35:55.350Z,21.90
2018-07-10T06:38:26.270Z,22.40
2018-07-10T06:40:57.211Z,22.90
2018-07-10T06:43:45.167Z,23.10
2018-07-10T06:46:16.672Z,23.70
2018-07-10T06:48:52.210Z,24.10
2018-07-10T06:51:24.186Z,24.70
2018-07-10T06:54:02.232Z,25.00
2018-07-10T06:56:33.499Z,25.00
2018-07-10T06:59:04.286Z,24.90
2018-07-10T07:01:35.214Z,25.00
2018-07-10T07:04:08.913Z,24.80
2018-07-10T07:06:39.828Z,25.10
2018-07-10T07:09:10.687Z,25.30
2018-07-10T07:11:42.599Z,25.40
2018-07-10T07:14:13.776Z,25.60
2018-07-10T07:16:45.215Z,25.90
2018-07-10T07:19:16.802Z,26.20
2018-07-10T07:22:22.551Z,26.50
2018-07-10T07:24:53.624Z,26.80
2018-07-10T07:27:24.542Z,27.10
2018-07-10T07:29:58.059Z,27.40
2018-07-10T07:32:29.460Z,27.10
2018-07-10T07:35:00.794Z,27.00
2018-07-10T07:37:34.069Z,26.80
2018-07-10T07:40:08.426Z,27.00
2018-07-10T07:42:43.340Z,27.20
2018-07-10T07:45:18.777Z,27.20
2018-07-10T07:47:51.524Z,27.40
2018-07-10T07:50:24.710Z,27.70
2018-07-10T07:52:55.924Z,28.20
2018-07-10T07:55:27.503Z,28.70
2018-07-10T07:57:59.903Z,29.60
2018-07-10T08:00:30.975Z,29.80
2018-07-10T08:03:01.935Z,30.40
2018-07-10T08:05:32.672Z,30.80
2018-07-10T08:08:03.788Z,31.10
2018-07-10T08:10:35.578Z,30.90
2018-07-10T08:13:07.917Z,30.90
2018-07-10T08:15:39.661Z,31.10
2018-07-10T08:18:10.766Z,32.30
2018-07-10T08:20:42.089Z,32.40
2018-07-10T08:23:12.855Z,32.50
2018-07-10T08:25:44.439Z,32.90
2018-07-10T08:28:15.900Z,32.70
2018-07-10T08:30:46.713Z,32.50
2018-07-10T08:33:18.329Z,32.90
2018-07-10T08:35:49.972Z,32.70
2018-07-10T08:38:36.384Z,32.00
2018-07-10T08:41:09.532Z,32.50
2018-07-10T08:46:13.856Z,32.80
2018-07-10T08:48:46.656Z,33.30
2018-07-10T08:51:18.403Z,33.60
2018-07-10T08:53:51.581Z,32.60
2018-07-10T08:56:22.514Z,32.80
2018-07-10T08:58:54.540Z,33.50
2018-07-10T09:01:28.700Z,33.60
2018-07-10T09:04:00.653Z,33.50
2018-07-10T09:06:33.042Z,34.10
2018-07-10T09:09:06.084Z,34.60
2018-07-10T09:11:37.778Z,33.10
2018-07-10T09:14:10.257Z,33.20
2018-07-10T09:16:41.239Z,33.80
2018-07-10T09:19:14.898Z,35.20
2018-07-10T09:22:01.620Z,35.70
2018-07-10T09:24:34.127Z,35.70
2018-07-10T09:27:09.597Z,35.80
2018-07-10T09:29:42.162Z,35.10
2018-07-10T09:32:13.991Z,35.40
2018-07-10T09:34:45.290Z,35.80
2018-07-10T09:37:21.958Z,33.60
2018-07-10T09:39:56.831Z,34.30
2018-07-10T09:42:27.669Z,35.30
2018-07-10T09:47:28.913Z,35.60
2018-07-10T09:49:59.807Z,35.40
2018-07-10T09:52:31.427Z,35.90
2018-07-10T09:55:02.924Z,35.80
2018-07-10T09:57:34.282Z,36.10
2018-07-10T10:00:06.275Z,36.60
2018-07-10T10:02:37.580Z,36.90
2018-07-10T10:07:39.911Z,34.40
2018-07-10T10:10:12.569Z,34.80
2018-07-10T10:12:43.230Z,35.60
2018-07-10T10:15:14.104Z,36.30
2018-07-10T10:17:45.315Z,36.50
2018-07-10T10:20:16.958Z,36.30
2018-07-10T10:22:47.705Z,36.40
2018-07-10T10:25:19.913Z,36.70
2018-07-10T10:30:31.158Z,36.50
2018-07-10T10:33:01.807Z,35.90
2018-07-10T10:35:33.001Z,35.40
2018-07-10T10:38:04.430Z,34.90
2018-07-10T10:40:39.417Z,34.50
2018-07-10T10:43:12.348Z,32.90
2018-07-10T10:48:16.583Z,32.70
2018-07-10T10:50:52.465Z,32.60
2018-07-10T10:53:24.231Z,33.60
2018-07-10T10:55:56.305Z,34.90
2018-07-10T10:58:27.661Z,36.00
2018-07-10T11:00:58.478Z,36.20
2018-07-10T11:05:59.949Z,36.50
2018-07-10T11:08:30.580Z,34.00
2018-07-10T11:11:01.948Z,34.20
2018-07-10T11:13:33.745Z,34.90
2018-07-10T11:16:04.605Z,35.40
2018-07-10T11:18:46.380Z,35.70
2018-07-10T11:21:33.661Z,33.90
2018-07-10T11:24:06.127Z,33.60
2018-07-10T11:47:07.402Z,36.60
2018-07-10T11:49:38.137Z,33.90
2018-07-10T11:52:09.280Z,33.70
2018-07-10T11:54:40.115Z,34.60
2018-07-10T11:57:10.880Z,35.80
2018-07-10T11:59:42.334Z,36.70
2018-07-10T12:02:14.292Z,37.40
2018-07-10T12:04:45.454Z,35.40
2018-07-10T12:07:16.251Z,35.40
2018-07-10T12:10:03.181Z,35.20
2018-07-10T12:12:35.545Z,34.40
2018-07-10T12:15:07.156Z,33.40
2018-07-10T12:17:39.515Z,32.60
2018-07-10T12:22:43.503Z,32.70
2018-07-10T12:25:15.084Z,32.40
2018-07-10T12:27:46.961Z,32.60
2018-07-10T12:30:18.823Z,32.70
2018-07-10T12:32:49.955Z,33.60
2018-07-10T12:35:21.271Z,33.50
2018-07-10T12:37:52.960Z,33.20
2018-07-10T12:40:24.677Z,32.90
2018-07-10T12:45:27.857Z,34.00
2018-07-10T12:48:01.293Z,34.40
2018-07-10T12:50:32.924Z,33.70
2018-07-10T12:53:04.578Z,32.80
2018-07-10T12:55:37.823Z,32.30
2018-07-10T12:58:08.439Z,32.00
2018-07-10T13:00:41.103Z,33.00
2018-07-10T13:03:13.871Z,33.70
2018-07-10T13:05:50.831Z,32.60
2018-07-10T13:08:21.735Z,31.80
2018-07-10T13:10:53.570Z,32.20
2018-07-10T13:13:25.748Z,32.40
2018-07-10T13:15:57.762Z,32.70
2018-07-10T13:18:31.254Z,32.60
2018-07-10T13:23:32.879Z,31.90
2018-07-10T13:26:05.393Z,32.60
2018-07-10T13:28:36.933Z,33.00
2018-07-10T13:33:40.040Z,31.30
2018-07-10T13:36:15.331Z,31.50
2018-07-10T13:38:46.147Z,32.20
2018-07-10T13:41:17.396Z,33.10
2018-07-10T13:43:48.458Z,33.30
2018-07-10T13:46:19.824Z,32.60
2018-07-10T13:48:51.659Z,32.50
2018-07-10T13:51:22.949Z,32.70
2018-07-10T13:53:53.998Z,31.80
2018-07-10T13:56:26.424Z,31.60
2018-07-10T13:58:57.808Z,31.70
2018-07-10T14:01:29.148Z,31.90
2018-07-10T14:04:05.868Z,31.70
2018-07-10T14:06:39.872Z,31.70
2018-07-10T14:09:13.159Z,32.00
2018-07-10T14:11:44.309Z,32.00
2018-07-10T14:14:16.847Z,32.20
2018-07-10T14:16:48.298Z,31.70
2018-07-10T14:19:20.071Z,31.80
2018-07-10T14:21:52.316Z,32.00
2018-07-10T14:24:22.984Z,32.00
2018-07-10T14:29:24.701Z,30.60
2018-07-10T14:31:55.726Z,30.90
2018-07-10T14:34:26.840Z,30.90
2018-07-10T14:36:57.887Z,30.70
2018-07-10T14:39:30.683Z,30.80
2018-07-10T14:42:01.410Z,30.50
2018-07-10T14:47:02.964Z,30.70
2018-07-10T14:49:34.381Z,31.00
2018-07-10T14:52:05.380Z,31.10
2018-07-10T14:54:36.191Z,30.90
2018-07-10T14:57:09.097Z,30.80
2018-07-10T14:59:40.043Z,31.20
2018-07-10T15:02:10.786Z,31.10
2018-07-10T15:04:42.388Z,31.10
2018-07-10T15:07:13.237Z,31.20
2018-07-10T15:12:15.382Z,30.60
2018-07-10T15:14:47.241Z,30.50
2018-07-10T15:17:23.591Z,29.90
2018-07-10T15:19:55.453Z,29.80
2018-07-10T15:22:26.254Z,29.70
2018-07-10T15:24:57.125Z,29.70
2018-07-10T15:27:27.735Z,29.70
2018-07-10T15:29:59.460Z,29.60
2018-07-10T15:32:31.997Z,29.80
2018-07-10T15:35:03.232Z,29.80
2018-07-10T15:37:34.077Z,29.70
2018-07-10T15:40:05.431Z,29.70
2018-07-10T15:42:36.283Z,30.20
2018-07-10T15:45:07.158Z,30.40
2018-07-10T15:47:39.269Z,30.30
2018-07-10T15:50:10.323Z,30.20
2018-07-10T15:52:41.149Z,30.00
2018-07-10T15:55:12.132Z,30.00
2018-07-10T15:57:43.191Z,29.70
2018-07-10T16:00:13.834Z,29.60
2018-07-10T16:02:44.504Z,29.50
2018-07-10T16:05:15.656Z,29.60
2018-07-10T16:07:48.696Z,29.60
2018-07-10T16:10:19.436Z,29.60
2018-07-10T16:12:50.106Z,29.80
2018-07-10T16:15:21.447Z,29.70
2018-07-10T16:17:52.549Z,29.70
2018-07-10T16:22:54.899Z,29.40
2018-07-10T16:25:32.046Z,29.20
2018-07-10T16:28:14.474Z,29.10
2018-07-10T16:30:48.631Z,29.10
2018-07-10T16:36:05.028Z,29.10
2018-07-10T16:38:36.711Z,29.40
2018-07-10T16:41:14.380Z,29.30
2018-07-10T16:43:45.934Z,29.00
2018-07-10T16:46:23.375Z,28.90
2018-07-10T16:49:34.209Z,28.80
2018-07-10T16:52:26.387Z,28.80
2018-07-10T16:54:57.421Z,28.60
2018-07-10T16:57:28.398Z,28.60
2018-07-10T16:59:59.203Z,28.50
2018-07-10T17:02:30.511Z,28.60
2018-07-10T17:05:02.821Z,28.60
2018-07-10T17:07:34.019Z,28.30
2018-07-10T17:10:04.900Z,28.30
2018-07-10T17:12:35.722Z,28.50
2018-07-10T17:15:06.448Z,28.50
2018-07-10T17:17:36.945Z,28.50
2018-07-10T17:20:12.146Z,28.40
2018-07-10T17:22:44.930Z,28.40
2018-07-10T17:25:16.478Z,28.20
2018-07-10T17:27:49.785Z,28.40
2018-07-10T17:30:20.674Z,28.40
2018-07-10T17:32:51.499Z,28.20
2018-07-10T17:35:22.486Z,28.10
2018-07-10T17:37:54.781Z,28.20
2018-07-10T17:40:26.163Z,28.10
2018-07-10T17:42:57.041Z,28.10
2018-07-10T17:45:28.004Z,28.00
2018-07-10T17:48:00.526Z,27.90
2018-07-10T17:50:33.098Z,27.80
2018-07-10T17:53:04.430Z,27.80
2018-07-10T17:55:36.965Z,27.80
2018-07-10T17:58:08.518Z,27.80
2018-07-10T18:00:40.069Z,27.80
2018-07-10T18:05:42.465Z,27.60
2018-07-10T18:08:14.248Z,27.50
2018-07-10T18:10:47.930Z,27.50
2018-07-10T18:13:22.931Z,27.30
2018-07-10T18:15:55.352Z,27.30
2018-07-10T18:18:26.729Z,27.20
2018-07-10T18:21:00.091Z,27.30
2018-07-10T18:23:33.099Z,27.20
2018-07-10T18:26:06.098Z,27.20
2018-07-10T18:28:39.721Z,27.30
2018-07-10T18:31:11.574Z,27.20
2018-07-10T18:33:43.234Z,27.10
2018-07-10T18:36:15.579Z,27.00
2018-07-10T18:38:48.765Z,26.80
2018-07-10T18:41:21.069Z,26.60
2018-07-10T18:46:24.315Z,26.50
2018-07-10T18:48:56.612Z,26.30
2018-07-10T18:51:30.126Z,26.20
2018-07-10T18:54:05.602Z,26.20
2018-07-10T18:56:38.953Z,26.10
2018-07-10T18:59:13.905Z,25.90
2018-07-10T19:02:00.750Z,25.80
2018-07-10T19:05:09.678Z,25.60
2018-07-10T19:07:43.752Z,25.50
2018-07-10T19:10:16.270Z,25.40
2018-07-10T19:12:49.583Z,25.40
2018-07-10T19:15:23.816Z,25.50
2018-07-10T19:17:55.930Z,25.50
2018-07-10T19:20:30.463Z,25.60
2018-07-10T19:23:17.482Z,25.50
2018-07-10T19:25:49.739Z,25.50
2018-07-10T19:28:22.758Z,25.30
2018-07-10T19:31:12.483Z,25.20
2018-07-10T19:33:47.448Z,25.10
2018-07-10T19:36:19.433Z,25.00
2018-07-10T19:38:51.560Z,24.90
2018-07-10T19:41:24.897Z,24.70
2018-07-10T19:43:58.627Z,24.60
2018-07-10T19:46:33.135Z,24.50
2018-07-10T19:49:08.608Z,24.40
2018-07-10T19:51:43.052Z,24.40
2018-07-10T19:54:19.369Z,24.40
2018-07-10T19:56:52.483Z,24.40
2018-07-10T19:59:24.688Z,24.50
2018-07-10T20:02:00.330Z,24.60
2018-07-10T20:04:54.355Z,24.70
2018-07-10T20:07:30.843Z,24.70
2018-07-10T20:10:13.341Z,24.70
2018-07-10T20:13:52.549Z,24.70
2018-07-10T20:16:40.302Z,24.60
2018-07-10T20:24:22.870Z,24.40
2018-07-10T20:27:08.491Z,24.20
2018-07-10T20:32:00.484Z,24.20
2018-07-10T20:34:57.629Z,24.10
2018-07-10T20:37:32.283Z,24.10
2018-07-10T20:40:05.382Z,24.10
2018-07-10T20:42:45.467Z,24.10
2018-07-10T20:45:17.754Z,24.00
2018-07-10T20:47:54.559Z,23.90
2018-07-10T20:51:11.262Z,23.80
2018-07-10T20:54:28.303Z,23.80
2018-07-10T20:58:13.609Z,23.60
2018-07-10T21:01:16.448Z,23.40
2018-07-10T21:03:53.215Z,23.30
2018-07-10T21:06:51.813Z,23.30
2018-07-10T21:09:28.805Z,23.20
2018-07-10T21:12:16.257Z,23.30
2018-07-10T21:16:25.211Z,23.30
2018-07-10T21:20:12.778Z,23.40
2018-07-10T21:23:00.699Z,23.20
2018-07-10T21:25:58.607Z,23.10
2018-07-10T21:28:46.764Z,23.10
2018-07-10T21:31:42.419Z,23.10
2018-07-10T21:34:23.224Z,23.20
2018-07-10T21:37:08.165Z,23.20
2018-07-10T21:41:54.391Z,23.10
2018-07-10T21:44:44.588Z,23.10
2018-07-10T21:48:28.755Z,22.90
2018-07-10T21:50:59.826Z,22.90
2018-07-10T21:53:30.866Z,22.90
2018-07-10T21:56:02.359Z,23.00
2018-07-10T21:58:33.924Z,22.90
2018-07-10T22:01:52.185Z,22.90
2018-07-10T22:04:41.440Z,22.90
2018-07-10T22:07:15.986Z,23.00
2018-07-10T22:09:47.136Z,22.90
2018-07-10T22:12:20.954Z,22.80
2018-07-10T22:14:51.985Z,22.80
2018-07-10T22:17:25.878Z,22.80
2018-07-10T22:19:59.073Z,22.60
2018-07-10T22:22:33.761Z,22.60
2018-07-10T22:25:08.579Z,22.50
2018-07-10T22:27:41.738Z,22.40
2018-07-10T22:30:21.691Z,22.40
2018-07-10T22:33:04.424Z,22.30
2018-07-10T22:35:35.369Z,22.40
2018-07-10T22:38:07.170Z,22.50
2018-07-10T22:40:37.877Z,22.60
2018-07-10T22:43:08.525Z,22.60
2018-07-10T22:45:39.748Z,22.70
2018-07-10T22:48:11.052Z,22.80
2018-07-10T22:53:12.165Z,23.00
2018-07-10T22:55:42.926Z,22.90
2018-07-10T22:58:13.949Z,23.00
2018-07-10T23:00:44.790Z,23.00
2018-07-10T23:03:22.455Z,23.00
2018-07-10T23:05:54.046Z,22.90
2018-07-10T23:08:31.701Z,23.00
2018-07-10T23:11:04.761Z,23.00
2018-07-10T23:13:42.516Z,23.00
2018-07-10T23:16:13.550Z,22.90
2018-07-10T23:18:45.821Z,23.00
2018-07-10T23:21:18.356Z,22.90
2018-07-10T23:23:50.508Z,22.90
2018-07-10T23:26:21.763Z,22.90
2018-07-10T23:28:55.093Z,22.80
2018-07-10T23:31:30.244Z,22.80
2018-07-10T23:34:17.951Z,22.70
2018-07-10T23:37:01.703Z,22.70
2018-07-10T23:39:49.091Z,22.70
2018-07-10T23:42:37.626Z,22.60
2018-07-10T23:45:20.541Z,22.60
2018-07-10T23:47:55.198Z,22.40
2018-07-10T23:50:31.009Z,22.40
2018-07-10T23:54:08.891Z,22.30
2018-07-10T23:59:09.956Z,22.00
